sensor_id;sensor_type;location;lat;lon;timestamp;P1;durP1;ratioP1;P2;durP2;ratioP2
26062;SDS011;13837;48.562;12.108;2022-10-16T00:01:48;7.18;;;6.22;;
26062;SDS011;13837;48.562;12.108;2022-10-16T00:04:19;6.47;;;5.88;;
26062;SDS011;13837;48.562;12.108;2022-10-16T00:06:47;6.70;;;5.90;;
26062;SDS011;13837;48.562;12.108;2022-10-16T00:09:18;10.65;;;6.57;;
26062;SDS011;13837;48.562;12.108;2022-10-16T00:11:46;7.40;;;5.90;;
26062;SDS011;13837;48.562;12.108;2022-10-16T00:14:15;9.50;;;6.85;;
26062;SDS011;13837;48.562;12.108;2022-10-16T00:16:44;9.20;;;6.97;;
26062;SDS011;13837;48.562;12.108;2022-10-16T00:19:13;8.18;;;6.60;;
26062;SDS011;13837;48.562;12.108;2022-10-16T00:21:42;7.60;;;6.90;;
26062;SDS011;13837;48.562;12.108;2022-10-16T00:24:08;8.68;;;7.35;;
26062;SDS011;13837;48.562;12.108;2022-10-16T00:26:42;12.80;;;7.82;;
26062;SDS011;13837;48.562;12.108;2022-10-16T00:29:11;7.60;;;6.63;;
26062;SDS011;13837;48.562;12.108;2022-10-16T00:31:44;8.60;;;6.55;;
26062;SDS011;13837;48.562;12.108;2022-10-16T00:34:10;8.10;;;7.03;;
26062;SDS011;13837;48.562;12.108;2022-10-16T00:36:38;8.83;;;6.60;;
26062;SDS011;13837;48.562;12.108;2022-10-16T00:39:11;7.50;;;6.78;;
26062;SDS011;13837;48.562;12.108;2022-10-16T00:41:43;6.50;;;5.88;;
26062;SDS011;13837;48.562;12.108;2022-10-16T00:47:29;7.88;;;6.30;;
26062;SDS011;13837;48.562;12.108;2022-10-16T00:50:06;8.20;;;5.95;;
26062;SDS011;13837;48.562;12.108;2022-10-16T00:52:47;7.20;;;6.50;;
26062;SDS011;13837;48.562;12.108;2022-10-16T00:55:17;10.93;;;5.82;;
26062;SDS011;13837;48.562;12.108;2022-10-16T00:57:49;12.20;;;6.38;;
26062;SDS011;13837;48.562;12.108;2022-10-16T01:00:24;8.23;;;6.38;;
26062;SDS011;13837;48.562;12.108;2022-10-16T01:03:01;8.10;;;5.75;;
26062;SDS011;13837;48.562;12.108;2022-10-16T01:05:33;11.00;;;6.50;;
26062;SDS011;13837;48.562;12.108;2022-10-16T01:08:12;11.68;;;7.43;;
26062;SDS011;13837;48.562;12.108;2022-10-16T01:11:17;11.27;;;7.03;;
26062;SDS011;13837;48.562;12.108;2022-10-16T01:17:58;7.38;;;6.35;;
26062;SDS011;13837;48.562;12.108;2022-10-16T01:20:37;9.25;;;7.68;;
26062;SDS011;13837;48.562;12.108;2022-10-16T01:29:05;8.52;;;7.22;;
26062;SDS011;13837;48.562;12.108;2022-10-16T01:57:50;8.95;;;8.00;;
26062;SDS011;13837;48.562;12.108;2022-10-16T02:00:22;7.93;;;7.22;;
26062;SDS011;13837;48.562;12.108;2022-10-16T02:02:51;8.70;;;6.25;;
26062;SDS011;13837;48.562;12.108;2022-10-16T02:05:22;13.00;;;6.07;;
26062;SDS011;13837;48.562;12.108;2022-10-16T02:07:58;9.00;;;6.57;;
26062;SDS011;13837;48.562;12.108;2022-10-16T02:10:25;6.63;;;5.93;;
26062;SDS011;13837;48.562;12.108;2022-10-16T02:13:17;6.95;;;5.95;;
26062;SDS011;13837;48.562;12.108;2022-10-16T02:15:51;6.15;;;5.70;;
26062;SDS011;13837;48.562;12.108;2022-10-16T02:18:20;8.73;;;5.33;;
26062;SDS011;13837;48.562;12.108;2022-10-16T02:21:02;7.47;;;5.33;;
26062;SDS011;13837;48.562;12.108;2022-10-16T02:26:51;7.30;;;5.47;;
26062;SDS011;13837;48.562;12.108;2022-10-16T02:29:27;6.72;;;5.65;;
26062;SDS011;13837;48.562;12.108;2022-10-16T02:31:58;5.85;;;5.35;;
26062;SDS011;13837;48.562;12.108;2022-10-16T02:34:31;8.88;;;5.90;;
26062;SDS011;13837;48.562;12.108;2022-10-16T02:36:59;6.03;;;5.53;;
26062;SDS011;13837;48.562;12.108;2022-10-16T02:39:28;6.20;;;5.72;;
26062;SDS011;13837;48.562;12.108;2022-10-16T02:41:57;8.10;;;5.57;;
26062;SDS011;13837;48.562;12.108;2022-10-16T02:44:26;6.77;;;5.53;;
26062;SDS011;13837;48.562;12.108;2022-10-16T02:46:52;6.38;;;5.35;;
26062;SDS011;13837;48.562;12.108;2022-10-16T02:49:25;5.65;;;4.93;;
26062;SDS011;13837;48.562;12.108;2022-10-16T02:51:51;7.30;;;6.40;;
26062;SDS011;13837;48.562;12.108;2022-10-16T02:54:17;8.13;;;6.20;;
26062;SDS011;13837;48.562;12.108;2022-10-16T02:56:43;7.10;;;5.93;;
26062;SDS011;13837;48.562;12.108;2022-10-16T02:59:11;7.25;;;6.65;;
26062;SDS011;13837;48.562;12.108;2022-10-16T03:04:36;8.52;;;6.68;;
26062;SDS011;13837;48.562;12.108;2022-10-16T03:07:10;10.75;;;7.10;;
26062;SDS011;13837;48.562;12.108;2022-10-16T03:09:36;8.18;;;7.32;;
26062;SDS011;13837;48.562;12.108;2022-10-16T03:12:15;7.80;;;7.18;;
26062;SDS011;13837;48.562;12.108;2022-10-16T03:14:46;7.68;;;6.95;;
26062;SDS011;13837;48.562;12.108;2022-10-16T03:17:12;8.45;;;7.72;;
26062;SDS011;13837;48.562;12.108;2022-10-16T03:19:41;8.75;;;7.97;;
26062;SDS011;13837;48.562;12.108;2022-10-16T03:22:07;7.85;;;7.18;;
26062;SDS011;13837;48.562;12.108;2022-10-16T03:24:33;7.85;;;7.18;;
26062;SDS011;13837;48.562;12.108;2022-10-16T03:27:00;7.55;;;6.80;;
26062;SDS011;13837;48.562;12.108;2022-10-16T03:29:31;8.93;;;7.25;;
26062;SDS011;13837;48.562;12.108;2022-10-16T03:32:00;7.50;;;6.90;;
26062;SDS011;13837;48.562;12.108;2022-10-16T03:34:29;8.57;;;7.13;;
26062;SDS011;13837;48.562;12.108;2022-10-16T03:36:55;7.30;;;6.72;;
26062;SDS011;13837;48.562;12.108;2022-10-16T03:39:22;8.18;;;7.43;;
26062;SDS011;13837;48.562;12.108;2022-10-16T03:49:19;7.90;;;7.13;;
26062;SDS011;13837;48.562;12.108;2022-10-16T03:51:47;8.13;;;7.32;;
26062;SDS011;13837;48.562;12.108;2022-10-16T03:54:14;8.05;;;6.68;;
26062;SDS011;13837;48.562;12.108;2022-10-16T03:56:40;8.23;;;7.40;;
26062;SDS011;13837;48.562;12.108;2022-10-16T03:59:09;8.82;;;7.93;;
26062;SDS011;13837;48.562;12.108;2022-10-16T04:06:55;9.52;;;7.72;;
26062;SDS011;13837;48.562;12.108;2022-10-16T04:09:24;8.82;;;7.97;;
26062;SDS011;13837;48.562;12.108;2022-10-16T04:11:50;11.18;;;7.68;;
26062;SDS011;13837;48.562;12.108;2022-10-16T04:14:16;9.93;;;8.48;;
26062;SDS011;13837;48.562;12.108;2022-10-16T04:16:43;11.23;;;10.00;;
26062;SDS011;13837;48.562;12.108;2022-10-16T04:19:09;16.60;;;12.20;;
26062;SDS011;13837;48.562;12.108;2022-10-16T04:21:39;14.05;;;11.55;;
26062;SDS011;13837;48.562;12.108;2022-10-16T04:24:05;16.08;;;11.32;;
26062;SDS011;13837;48.562;12.108;2022-10-16T04:26:32;12.45;;;11.15;;
26062;SDS011;13837;48.562;12.108;2022-10-16T04:29:00;11.95;;;9.43;;
26062;SDS011;13837;48.562;12.108;2022-10-16T04:31:28;11.45;;;10.23;;
26062;SDS011;13837;48.562;12.108;2022-10-16T04:33:54;10.82;;;9.77;;
26062;SDS011;13837;48.562;12.108;2022-10-16T04:36:26;9.68;;;8.82;;
26062;SDS011;13837;48.562;12.108;2022-10-16T04:38:55;8.47;;;7.77;;
26062;SDS011;13837;48.562;12.108;2022-10-16T04:41:21;9.50;;;7.40;;
26062;SDS011;13837;48.562;12.108;2022-10-16T04:43:47;8.02;;;7.43;;
26062;SDS011;13837;48.562;12.108;2022-10-16T04:46:15;7.80;;;7.10;;
26062;SDS011;13837;48.562;12.108;2022-10-16T04:48:42;7.90;;;7.28;;
26062;SDS011;13837;48.562;12.108;2022-10-16T04:51:12;7.22;;;6.72;;
26062;SDS011;13837;48.562;12.108;2022-10-16T04:53:40;8.13;;;6.47;;
26062;SDS011;13837;48.562;12.108;2022-10-16T04:56:09;6.72;;;6.22;;
26062;SDS011;13837;48.562;12.108;2022-10-16T04:58:38;7.82;;;6.80;;
26062;SDS011;13837;48.562;12.108;2022-10-16T05:01:06;7.85;;;7.18;;
26062;SDS011;13837;48.562;12.108;2022-10-16T05:03:38;8.05;;;7.38;;
26062;SDS011;13837;48.562;12.108;2022-10-16T05:06:09;8.85;;;7.55;;
26062;SDS011;13837;48.562;12.108;2022-10-16T05:08:35;7.30;;;6.60;;
26062;SDS011;13837;48.562;12.108;2022-10-16T05:20:31;8.65;;;7.85;;
26062;SDS011;13837;48.562;12.108;2022-10-16T05:22:57;8.40;;;7.65;;
26062;SDS011;13837;48.562;12.108;2022-10-16T05:25:26;8.30;;;7.70;;
26062;SDS011;13837;48.562;12.108;2022-10-16T05:27:57;8.02;;;7.05;;
26062;SDS011;13837;48.562;12.108;2022-10-16T05:30:23;8.45;;;7.70;;
26062;SDS011;13837;48.562;12.108;2022-10-16T05:32:54;9.00;;;8.10;;
26062;SDS011;13837;48.562;12.108;2022-10-16T05:35:23;8.38;;;7.57;;
26062;SDS011;13837;48.562;12.108;2022-10-16T05:37:56;8.60;;;7.82;;
26062;SDS011;13837;48.562;12.108;2022-10-16T05:40:25;8.90;;;8.10;;
26062;SDS011;13837;48.562;12.108;2022-10-16T05:42:56;9.23;;;8.43;;
26062;SDS011;13837;48.562;12.108;2022-10-16T05:45:22;8.90;;;8.10;;
26062;SDS011;13837;48.562;12.108;2022-10-16T05:47:51;9.60;;;8.80;;
26062;SDS011;13837;48.562;12.108;2022-10-16T05:50:19;8.23;;;7.57;;
26062;SDS011;13837;48.562;12.108;2022-10-16T05:52:48;8.98;;;8.23;;
26062;SDS011;13837;48.562;12.108;2022-10-16T05:55:15;8.60;;;8.00;;
26062;SDS011;13837;48.562;12.108;2022-10-16T05:57:41;8.05;;;7.43;;
26062;SDS011;13837;48.562;12.108;2022-10-16T06:00:12;9.20;;;8.38;;
26062;SDS011;13837;48.562;12.108;2022-10-16T06:02:43;8.60;;;7.80;;
26062;SDS011;13837;48.562;12.108;2022-10-16T06:05:10;9.38;;;7.45;;
26062;SDS011;13837;48.562;12.108;2022-10-16T06:07:36;8.63;;;7.60;;
26062;SDS011;13837;48.562;12.108;2022-10-16T06:10:05;7.97;;;7.18;;
26062;SDS011;13837;48.562;12.108;2022-10-16T06:12:34;7.75;;;6.80;;
26062;SDS011;13837;48.562;12.108;2022-10-16T06:15:05;7.10;;;6.57;;
26062;SDS011;13837;48.562;12.108;2022-10-16T06:17:44;7.45;;;6.82;;
26062;SDS011;13837;48.562;12.108;2022-10-16T06:20:10;7.17;;;6.47;;
26062;SDS011;13837;48.562;12.108;2022-10-16T06:22:36;7.20;;;6.70;;
26062;SDS011;13837;48.562;12.108;2022-10-16T06:25:02;7.95;;;7.25;;
26062;SDS011;13837;48.562;12.108;2022-10-16T06:27:28;8.07;;;6.85;;
26062;SDS011;13837;48.562;12.108;2022-10-16T06:29:57;7.80;;;7.13;;
26062;SDS011;13837;48.562;12.108;2022-10-16T06:32:26;7.47;;;6.68;;
26062;SDS011;13837;48.562;12.108;2022-10-16T06:34:53;6.95;;;6.03;;
26062;SDS011;13837;48.562;12.108;2022-10-16T06:37:19;6.97;;;6.00;;
26062;SDS011;13837;48.562;12.108;2022-10-16T06:39:45;6.28;;;5.78;;
26062;SDS011;13837;48.562;12.108;2022-10-16T06:42:11;7.55;;;7.00;;
26062;SDS011;13837;48.562;12.108;2022-10-16T06:44:37;7.93;;;6.05;;
26062;SDS011;13837;48.562;12.108;2022-10-16T06:47:04;7.95;;;5.78;;
26062;SDS011;13837;48.562;12.108;2022-10-16T06:49:33;6.55;;;5.95;;
26062;SDS011;13837;48.562;12.108;2022-10-16T06:52:01;8.17;;;6.67;;
26062;SDS011;13837;48.562;12.108;2022-10-16T06:54:30;7.20;;;6.40;;
26062;SDS011;13837;48.562;12.108;2022-10-16T06:57:07;7.30;;;6.60;;
26062;SDS011;13837;48.562;12.108;2022-10-16T06:59:34;7.95;;;6.30;;
26062;SDS011;13837;48.562;12.108;2022-10-16T07:02:00;7.07;;;6.28;;
26062;SDS011;13837;48.562;12.108;2022-10-16T07:04:26;7.20;;;5.55;;
26062;SDS011;13837;48.562;12.108;2022-10-16T07:06:54;6.73;;;6.10;;
26062;SDS011;13837;48.562;12.108;2022-10-16T07:09:32;5.90;;;5.45;;
26062;SDS011;13837;48.562;12.108;2022-10-16T07:12:01;5.55;;;5.05;;
26062;SDS011;13837;48.562;12.108;2022-10-16T07:14:29;6.93;;;4.63;;
26062;SDS011;13837;48.562;12.108;2022-10-16T07:16:58;5.53;;;4.32;;
26062;SDS011;13837;48.562;12.108;2022-10-16T07:19:24;4.60;;;4.20;;
26062;SDS011;13837;48.562;12.108;2022-10-16T07:21:53;6.40;;;4.45;;
26062;SDS011;13837;48.562;12.108;2022-10-16T07:24:19;5.88;;;5.38;;
26062;SDS011;13837;48.562;12.108;2022-10-16T07:26:47;6.93;;;4.30;;
26062;SDS011;13837;48.562;12.108;2022-10-16T07:29:15;5.18;;;3.50;;
26062;SDS011;13837;48.562;12.108;2022-10-16T07:31:42;4.18;;;3.35;;
26062;SDS011;13837;48.562;12.108;2022-10-16T07:34:09;4.85;;;3.53;;
26062;SDS011;13837;48.562;12.108;2022-10-16T07:36:36;6.40;;;3.17;;
26062;SDS011;13837;48.562;12.108;2022-10-16T07:39:02;5.88;;;2.97;;
26062;SDS011;13837;48.562;12.108;2022-10-16T07:41:28;10.15;;;3.67;;
26062;SDS011;13837;48.562;12.108;2022-10-16T07:43:54;3.67;;;3.38;;
26062;SDS011;13837;48.562;12.108;2022-10-16T07:46:22;7.65;;;3.85;;
26062;SDS011;13837;48.562;12.108;2022-10-16T07:48:48;5.43;;;3.67;;
26062;SDS011;13837;48.562;12.108;2022-10-16T07:51:15;4.40;;;4.00;;
26062;SDS011;13837;48.562;12.108;2022-10-16T07:53:45;9.32;;;3.70;;
26062;SDS011;13837;48.562;12.108;2022-10-16T07:56:12;3.90;;;3.35;;
26062;SDS011;13837;48.562;12.108;2022-10-16T07:58:38;4.18;;;3.72;;
26062;SDS011;13837;48.562;12.108;2022-10-16T08:01:06;7.35;;;3.95;;
26062;SDS011;13837;48.562;12.108;2022-10-16T08:03:34;4.25;;;3.85;;
26062;SDS011;13837;48.562;12.108;2022-10-16T08:06:00;7.63;;;3.88;;
26062;SDS011;13837;48.562;12.108;2022-10-16T08:08:27;3.92;;;3.53;;
26062;SDS011;13837;48.562;12.108;2022-10-16T08:10:53;6.03;;;3.92;;
26062;SDS011;13837;48.562;12.108;2022-10-16T08:13:19;7.55;;;3.60;;
26062;SDS011;13837;48.562;12.108;2022-10-16T08:15:45;7.50;;;3.80;;
26062;SDS011;13837;48.562;12.108;2022-10-16T08:18:12;4.07;;;3.50;;
26062;SDS011;13837;48.562;12.108;2022-10-16T08:20:39;5.18;;;3.67;;
26062;SDS011;13837;48.562;12.108;2022-10-16T08:23:06;3.72;;;3.42;;
26062;SDS011;13837;48.562;12.108;2022-10-16T08:25:34;4.20;;;3.67;;
26062;SDS011;13837;48.562;12.108;2022-10-16T08:28:03;4.43;;;3.65;;
26062;SDS011;13837;48.562;12.108;2022-10-16T08:30:30;4.28;;;3.67;;
26062;SDS011;13837;48.562;12.108;2022-10-16T08:32:56;3.47;;;3.00;;
26062;SDS011;13837;48.562;12.108;2022-10-16T08:35:23;5.68;;;4.07;;
26062;SDS011;13837;48.562;12.108;2022-10-16T08:37:49;5.18;;;4.00;;
26062;SDS011;13837;48.562;12.108;2022-10-16T08:40:16;4.10;;;3.30;;
26062;SDS011;13837;48.562;12.108;2022-10-16T08:51:31;5.45;;;3.65;;
26062;SDS011;13837;48.562;12.108;2022-10-16T08:54:03;4.22;;;3.65;;
26062;SDS011;13837;48.562;12.108;2022-10-16T08:57:09;3.53;;;3.08;;
26062;SDS011;13837;48.562;12.108;2022-10-16T08:59:42;3.72;;;3.42;;
26062;SDS011;13837;48.562;12.108;2022-10-16T09:02:24;4.55;;;3.47;;
26062;SDS011;13837;48.562;12.108;2022-10-16T09:18:33;4.03;;;3.72;;
26062;SDS011;13837;48.562;12.108;2022-10-16T09:21:13;5.43;;;3.80;;
26062;SDS011;13837;48.562;12.108;2022-10-16T09:23:46;3.83;;;3.15;;
26062;SDS011;13837;48.562;12.108;2022-10-16T09:26:13;6.68;;;3.47;;
26062;SDS011;13837;48.562;12.108;2022-10-16T09:28:40;3.10;;;2.80;;
26062;SDS011;13837;48.562;12.108;2022-10-16T09:31:40;3.85;;;3.30;;
26062;SDS011;13837;48.562;12.108;2022-10-16T09:34:02;7.15;;;2.92;;
26062;SDS011;13837;48.562;12.108;2022-10-16T09:36:32;5.15;;;3.13;;
26062;SDS011;13837;48.562;12.108;2022-10-16T09:39:05;5.90;;;3.33;;
26062;SDS011;13837;48.562;12.108;2022-10-16T09:41:34;3.97;;;3.35;;
26062;SDS011;13837;48.562;12.108;2022-10-16T09:44:02;3.20;;;3.00;;
26062;SDS011;13837;48.562;12.108;2022-10-16T09:46:32;5.97;;;2.75;;
26062;SDS011;13837;48.562;12.108;2022-10-16T09:51:45;5.82;;;3.25;;
26062;SDS011;13837;48.562;12.108;2022-10-16T09:54:13;3.40;;;2.92;;
26062;SDS011;13837;48.562;12.108;2022-10-16T09:56:40;3.72;;;2.83;;
26062;SDS011;13837;48.562;12.108;2022-10-16T09:59:17;4.95;;;2.90;;
26062;SDS011;13837;48.562;12.108;2022-10-16T10:01:48;5.97;;;2.70;;
26062;SDS011;13837;48.562;12.108;2022-10-16T10:04:14;3.65;;;2.78;;
26062;SDS011;13837;48.562;12.108;2022-10-16T10:06:42;6.60;;;3.00;;
26062;SDS011;13837;48.562;12.108;2022-10-16T10:17:06;4.15;;;2.80;;
26062;SDS011;13837;48.562;12.108;2022-10-16T10:19:38;3.72;;;3.13;;
26062;SDS011;13837;48.562;12.108;2022-10-16T10:22:15;6.35;;;2.65;;
26062;SDS011;13837;48.562;12.108;2022-10-16T10:27:44;3.75;;;2.92;;
26062;SDS011;13837;48.562;12.108;2022-10-16T10:35:54;6.38;;;2.95;;
26062;SDS011;13837;48.562;12.108;2022-10-16T10:46:35;3.15;;;2.83;;
26062;SDS011;13837;48.562;12.108;2022-10-16T10:55:16;4.05;;;2.60;;
26062;SDS011;13837;48.562;12.108;2022-10-16T11:00:21;2.80;;;2.60;;
26062;SDS011;13837;48.562;12.108;2022-10-16T11:02:52;3.10;;;2.63;;
26062;SDS011;13837;48.562;12.108;2022-10-16T11:05:42;4.30;;;2.78;;
26062;SDS011;13837;48.562;12.108;2022-10-16T11:11:18;2.58;;;2.38;;
26062;SDS011;13837;48.562;12.108;2022-10-16T11:14:18;3.83;;;2.83;;
26062;SDS011;13837;48.562;12.108;2022-10-16T11:16:58;6.68;;;2.72;;
26062;SDS011;13837;48.562;12.108;2022-10-16T11:19:39;3.25;;;2.53;;
26062;SDS011;13837;48.562;12.108;2022-10-16T11:27:45;5.90;;;2.90;;
26062;SDS011;13837;48.562;12.108;2022-10-16T11:30:17;4.43;;;2.80;;
26062;SDS011;13837;48.562;12.108;2022-10-16T11:35:25;5.13;;;2.65;;
26062;SDS011;13837;48.562;12.108;2022-10-16T11:38:02;4.78;;;2.63;;
26062;SDS011;13837;48.562;12.108;2022-10-16T11:40:32;2.30;;;2.10;;
26062;SDS011;13837;48.562;12.108;2022-10-16T11:43:10;4.85;;;2.38;;
26062;SDS011;13837;48.562;12.108;2022-10-16T11:45:54;2.97;;;2.67;;
26062;SDS011;13837;48.562;12.108;2022-10-16T11:57:18;7.10;;;2.50;;
26062;SDS011;13837;48.562;12.108;2022-10-16T11:59:51;3.15;;;2.33;;
26062;SDS011;13837;48.562;12.108;2022-10-16T12:08:17;2.42;;;2.22;;
26062;SDS011;13837;48.562;12.108;2022-10-16T12:10:44;3.65;;;2.03;;
26062;SDS011;13837;48.562;12.108;2022-10-16T12:16:07;3.78;;;1.90;;
26062;SDS011;13837;48.562;12.108;2022-10-16T12:18:47;5.28;;;2.30;;
26062;SDS011;13837;48.562;12.108;2022-10-16T12:21:14;2.10;;;1.80;;
26062;SDS011;13837;48.562;12.108;2022-10-16T12:24:02;4.28;;;1.90;;
26062;SDS011;13837;48.562;12.108;2022-10-16T12:26:33;5.47;;;2.05;;
26062;SDS011;13837;48.562;12.108;2022-10-16T12:31:57;3.28;;;1.70;;
26062;SDS011;13837;48.562;12.108;2022-10-16T12:39:27;2.60;;;1.88;;
26062;SDS011;13837;48.562;12.108;2022-10-16T12:44:46;2.10;;;1.90;;
26062;SDS011;13837;48.562;12.108;2022-10-16T12:47:23;1.98;;;1.77;;
26062;SDS011;13837;48.562;12.108;2022-10-16T12:49:55;6.03;;;1.98;;
26062;SDS011;13837;48.562;12.108;2022-10-16T12:52:29;2.45;;;1.90;;
26062;SDS011;13837;48.562;12.108;2022-10-16T12:55:03;2.47;;;2.00;;
26062;SDS011;13837;48.562;12.108;2022-10-16T13:10:56;5.45;;;1.88;;
26062;SDS011;13837;48.562;12.108;2022-10-16T13:16:26;1.98;;;1.88;;
26062;SDS011;13837;48.562;12.108;2022-10-16T13:21:48;2.45;;;1.70;;
26062;SDS011;13837;48.562;12.108;2022-10-16T13:30:17;1.52;;;1.40;;
26062;SDS011;13837;48.562;12.108;2022-10-16T13:35:31;4.07;;;1.67;;
26062;SDS011;13837;48.562;12.108;2022-10-16T13:40:50;3.45;;;1.50;;
26062;SDS011;13837;48.562;12.108;2022-10-16T13:44:12;2.15;;;1.80;;
26062;SDS011;13837;48.562;12.108;2022-10-16T13:46:16;1.55;;;1.45;;
26062;SDS011;13837;48.562;12.108;2022-10-16T13:48:43;2.37;;;1.30;;
26062;SDS011;13837;48.562;12.108;2022-10-16T13:51:16;2.78;;;1.25;;
26062;SDS011;13837;48.562;12.108;2022-10-16T13:53:43;2.28;;;1.40;;
26062;SDS011;13837;48.562;12.108;2022-10-16T13:56:11;1.70;;;1.60;;
26062;SDS011;13837;48.562;12.108;2022-10-16T13:58:38;1.45;;;1.23;;
26062;SDS011;13837;48.562;12.108;2022-10-16T14:01:05;2.72;;;1.52;;
26062;SDS011;13837;48.562;12.108;2022-10-16T14:06:24;4.07;;;1.30;;
26062;SDS011;13837;48.562;12.108;2022-10-16T14:09:06;2.30;;;1.38;;
26062;SDS011;13837;48.562;12.108;2022-10-16T14:11:36;1.85;;;1.38;;
26062;SDS011;13837;48.562;12.108;2022-10-16T14:14:11;3.30;;;1.40;;
26062;SDS011;13837;48.562;12.108;2022-10-16T14:16:37;1.67;;;1.42;;
26062;SDS011;13837;48.562;12.108;2022-10-16T14:19:17;4.85;;;1.52;;
26062;SDS011;13837;48.562;12.108;2022-10-16T14:21:49;1.27;;;1.27;;
26062;SDS011;13837;48.562;12.108;2022-10-16T14:24:32;1.73;;;1.38;;
26062;SDS011;13837;48.562;12.108;2022-10-16T14:26:59;1.27;;;1.17;;
26062;SDS011;13837;48.562;12.108;2022-10-16T14:29:27;1.25;;;1.15;;
26062;SDS011;13837;48.562;12.108;2022-10-16T14:32:04;2.15;;;1.40;;
26062;SDS011;13837;48.562;12.108;2022-10-16T14:34:32;3.38;;;1.38;;
26062;SDS011;13837;48.562;12.108;2022-10-16T14:37:08;5.30;;;1.25;;
26062;SDS011;13837;48.562;12.108;2022-10-16T14:39:55;1.65;;;1.40;;
26062;SDS011;13837;48.562;12.108;2022-10-16T14:42:22;1.55;;;1.45;;
26062;SDS011;13837;48.562;12.108;2022-10-16T14:44:50;6.35;;;1.30;;
26062;SDS011;13837;48.562;12.108;2022-10-16T14:47:21;3.17;;;1.50;;
26062;SDS011;13837;48.562;12.108;2022-10-16T14:49:51;1.95;;;1.25;;
26062;SDS011;13837;48.562;12.108;2022-10-16T14:52:18;1.63;;;1.30;;
26062;SDS011;13837;48.562;12.108;2022-10-16T14:54:47;1.55;;;1.20;;
26062;SDS011;13837;48.562;12.108;2022-10-16T14:57:32;1.50;;;1.20;;
26062;SDS011;13837;48.562;12.108;2022-10-16T15:00:00;1.10;;;1.10;;
26062;SDS011;13837;48.562;12.108;2022-10-16T15:02:30;1.17;;;1.05;;
26062;SDS011;13837;48.562;12.108;2022-10-16T15:04:57;2.08;;;1.30;;
26062;SDS011;13837;48.562;12.108;2022-10-16T15:07:27;1.60;;;1.10;;
26062;SDS011;13837;48.562;12.108;2022-10-16T15:09:52;1.58;;;1.13;;
26062;SDS011;13837;48.562;12.108;2022-10-16T15:12:22;2.15;;;1.50;;
26062;SDS011;13837;48.562;12.108;2022-10-16T15:14:48;3.03;;;1.60;;
26062;SDS011;13837;48.562;12.108;2022-10-16T15:17:14;1.50;;;1.40;;
26062;SDS011;13837;48.562;12.108;2022-10-16T15:19:39;2.28;;;1.42;;
26062;SDS011;13837;48.562;12.108;2022-10-16T15:22:05;2.90;;;1.63;;
26062;SDS011;13837;48.562;12.108;2022-10-16T15:24:31;2.63;;;2.08;;
26062;SDS011;13837;48.562;12.108;2022-10-16T15:26:57;3.38;;;2.00;;
26062;SDS011;13837;48.562;12.108;2022-10-16T15:29:22;2.92;;;2.35;;
26062;SDS011;13837;48.562;12.108;2022-10-16T15:31:48;4.15;;;2.03;;
26062;SDS011;13837;48.562;12.108;2022-10-16T15:34:14;6.32;;;2.00;;
26062;SDS011;13837;48.562;12.108;2022-10-16T15:36:40;5.85;;;2.25;;
26062;SDS011;13837;48.562;12.108;2022-10-16T15:39:12;3.28;;;2.38;;
26062;SDS011;13837;48.562;12.108;2022-10-16T15:41:40;3.28;;;2.17;;
26062;SDS011;13837;48.562;12.108;2022-10-16T15:44:06;3.08;;;2.10;;
26062;SDS011;13837;48.562;12.108;2022-10-16T15:46:32;4.68;;;2.38;;
26062;SDS011;13837;48.562;12.108;2022-10-16T15:48:59;5.88;;;2.53;;
26062;SDS011;13837;48.562;12.108;2022-10-16T15:51:26;5.18;;;2.40;;
26062;SDS011;13837;48.562;12.108;2022-10-16T15:53:55;4.32;;;2.15;;
26062;SDS011;13837;48.562;12.108;2022-10-16T15:56:22;4.45;;;2.50;;
26062;SDS011;13837;48.562;12.108;2022-10-16T15:58:50;8.25;;;2.35;;
26062;SDS011;13837;48.562;12.108;2022-10-16T16:01:16;4.07;;;2.15;;
26062;SDS011;13837;48.562;12.108;2022-10-16T16:03:42;4.75;;;2.00;;
26062;SDS011;13837;48.562;12.108;2022-10-16T16:06:10;8.00;;;2.50;;
26062;SDS011;13837;48.562;12.108;2022-10-16T16:08:37;8.13;;;2.08;;
26062;SDS011;13837;48.562;12.108;2022-10-16T16:13:33;5.57;;;1.90;;
26062;SDS011;13837;48.562;12.108;2022-10-16T16:15:59;6.93;;;1.83;;
26062;SDS011;13837;48.562;12.108;2022-10-16T16:18:25;5.30;;;2.10;;
26062;SDS011;13837;48.562;12.108;2022-10-16T16:20:51;6.85;;;2.20;;
26062;SDS011;13837;48.562;12.108;2022-10-16T16:23:17;4.90;;;2.35;;
26062;SDS011;13837;48.562;12.108;2022-10-16T16:25:44;11.35;;;2.80;;
26062;SDS011;13837;48.562;12.108;2022-10-16T16:28:10;4.10;;;2.40;;
26062;SDS011;13837;48.562;12.108;2022-10-16T16:30:39;5.22;;;2.40;;
26062;SDS011;13837;48.562;12.108;2022-10-16T16:33:06;3.95;;;2.60;;
26062;SDS011;13837;48.562;12.108;2022-10-16T16:35:31;11.50;;;2.55;;
26062;SDS011;13837;48.562;12.108;2022-10-16T16:37:57;6.13;;;2.67;;
26062;SDS011;13837;48.562;12.108;2022-10-16T16:40:23;4.25;;;2.47;;
26062;SDS011;13837;48.562;12.108;2022-10-16T16:42:48;5.07;;;3.17;;
26062;SDS011;13837;48.562;12.108;2022-10-16T16:45:14;10.88;;;2.70;;
26062;SDS011;13837;48.562;12.108;2022-10-16T16:47:40;6.38;;;2.67;;
26062;SDS011;13837;48.562;12.108;2022-10-16T16:50:06;9.50;;;2.90;;
26062;SDS011;13837;48.562;12.108;2022-10-16T16:52:33;7.20;;;2.70;;
26062;SDS011;13837;48.562;12.108;2022-10-16T16:54:59;9.25;;;3.70;;
26062;SDS011;13837;48.562;12.108;2022-10-16T16:57:26;6.25;;;3.65;;
26062;SDS011;13837;48.562;12.108;2022-10-16T16:59:51;8.60;;;3.35;;
26062;SDS011;13837;48.562;12.108;2022-10-16T17:02:17;7.68;;;3.25;;
26062;SDS011;13837;48.562;12.108;2022-10-16T17:04:43;11.02;;;3.50;;
26062;SDS011;13837;48.562;12.108;2022-10-16T17:07:09;7.28;;;3.45;;
26062;SDS011;13837;48.562;12.108;2022-10-16T17:09:34;9.68;;;4.70;;
26062;SDS011;13837;48.562;12.108;2022-10-16T17:12:00;17.33;;;9.07;;
26062;SDS011;13837;48.562;12.108;2022-10-16T17:14:26;9.88;;;6.07;;
26062;SDS011;13837;48.562;12.108;2022-10-16T17:16:52;14.85;;;6.63;;
26062;SDS011;13837;48.562;12.108;2022-10-16T17:19:18;14.00;;;10.63;;
26062;SDS011;13837;48.562;12.108;2022-10-16T17:21:44;15.45;;;10.75;;
26062;SDS011;13837;48.562;12.108;2022-10-16T17:24:13;14.07;;;10.35;;
26062;SDS011;13837;48.562;12.108;2022-10-16T17:26:39;15.48;;;9.65;;
26062;SDS011;13837;48.562;12.108;2022-10-16T17:29:14;12.50;;;8.93;;
26062;SDS011;13837;48.562;12.108;2022-10-16T17:31:42;14.93;;;8.75;;
26062;SDS011;13837;48.562;12.108;2022-10-16T17:34:08;12.85;;;7.90;;
26062;SDS011;13837;48.562;12.108;2022-10-16T17:36:36;11.48;;;8.00;;
26062;SDS011;13837;48.562;12.108;2022-10-16T17:39:04;10.35;;;7.80;;
26062;SDS011;13837;48.562;12.108;2022-10-16T17:41:32;10.80;;;7.80;;
26062;SDS011;13837;48.562;12.108;2022-10-16T17:43:58;11.70;;;7.68;;
26062;SDS011;13837;48.562;12.108;2022-10-16T17:46:24;11.13;;;8.48;;
26062;SDS011;13837;48.562;12.108;2022-10-16T17:48:52;13.20;;;8.55;;
26062;SDS011;13837;48.562;12.108;2022-10-16T17:51:21;13.73;;;9.10;;
26062;SDS011;13837;48.562;12.108;2022-10-16T17:53:49;11.20;;;8.50;;
26062;SDS011;13837;48.562;12.108;2022-10-16T17:56:20;15.43;;;8.77;;
26062;SDS011;13837;48.562;12.108;2022-10-16T17:58:47;13.88;;;9.02;;
26062;SDS011;13837;48.562;12.108;2022-10-16T18:01:15;11.38;;;7.50;;
26062;SDS011;13837;48.562;12.108;2022-10-16T18:03:49;13.60;;;8.40;;
26062;SDS011;13837;48.562;12.108;2022-10-16T18:06:16;12.05;;;7.97;;
26062;SDS011;13837;48.562;12.108;2022-10-16T18:08:42;13.57;;;7.93;;
26062;SDS011;13837;48.562;12.108;2022-10-16T18:11:08;14.55;;;7.55;;